Time;durP1;ratioP1;P1;durP2;ratioP2;P2;SDS_P1;SDS_P2;PMS_P1;PMS_P2;Temp;Humidity;BMP_temperature;BMP_pressure;BME280_temperature;BME280_humidity;BME280_pressure;Samples;Min_cycle;Max_cycle;Signal;HPM_P1;HPM_P2
2021/07/22 00:01:31;;;;;;;;;;;;;;;-148.22;100.00;58358.63;5091837;28;1250;-89
2021/07/22 00:04:21;;;;;;;;;;;;;;;-148.22;100.00;58358.63;5091466;28;1284;-90
2021/07/22 00:06:47;;;;;;;;;;;;;;;-148.22;100.00;58358.63;5091863;28;1294;-89
2021/07/22 00:09:32;;;;;;;;;;;;;;;-148.22;100.00;58358.63;5091627;28;1358;-90
2021/07/22 00:12:07;;;;;;;;;;;;;;;-148.22;100.00;58358.63;5091383;28;1947;-90
2021/07/22 00:14:51;;;;;;;;;;;;;;;-148.22;100.00;58358.63;5075900;28;861;-90
2021/07/22 00:20:20;;;;;;;;;;;;;;;-148.22;100.00;58358.63;5075831;28;624;-91
2021/07/22 00:22:54;;;;;;;;;;;;;;;-148.22;100.00;58358.63;5075923;28;1078;-91
2021/07/22 00:25:21;;;;;;;;;;;;;;;-148.22;100.00;58358.63;5075883;28;1075;-89
2021/07/22 00:28:26;;;;;;;;;;;;;;;-148.22;100.00;58358.63;5091358;28;1277;-89
2021/07/22 00:30:52;;;;;;;;;;;;;;;-148.22;100.00;58358.63;5091396;28;1949;-89
2021/07/22 00:33:27;;;;;;;;;;;;;;;-148.22;100.00;58358.63;5076030;28;833;-88
2021/07/22 00:36:20;;;;;;;;;;;;;;;-148.22;100.00;58358.63;5091515;28;1169;-88
2021/07/22 00:39:18;;;;;;;;;;;;;;;-148.22;100.00;58358.63;5091437;28;1179;-89
2021/07/22 00:42:02;;;;;;;;;;;;;;;-148.22;100.00;58358.63;5033672;28;1200;-87
2021/07/22 00:44:39;;;;;;;;;;;;;;;-148.22;100.00;58358.63;5017076;28;1426;-88
2021/07/22 00:47:04;;;;;;;;;;;;;;;-148.22;100.00;58358.63;5016927;28;1353;-89
2021/07/22 00:49:40;;;;;;;;;;;;;;;-148.22;100.00;58358.63;5033638;28;985;-89
2021/07/22 00:52:41;;;;;;;;;;;;;;;-148.22;100.00;58358.63;5016940;28;2005;-90
2021/07/22 00:55:16;;;;;;;;;;;;;;;-148.22;100.00;58358.63;5017121;28;1340;-89
2021/07/22 00:57:50;;;;;;;;;;;;;;;-148.22;100.00;58358.63;5033584;28;1393;-89
2021/07/22 01:00:24;;;;;;;;;;;;;;;-148.22;100.00;58358.63;5033655;28;1056;-89
2021/07/22 01:03:05;;;;;;;;;;;;;;;-148.22;100.00;58358.63;5016957;28;1343;-90
2021/07/22 01:05:44;;;;;;;;;;;;;;;-148.22;100.00;58358.63;5033454;28;1243;-90
2021/07/22 01:08:23;;;;;;;;;;;;;;;-148.22;100.00;58358.63;5033458;28;759;-90
2021/07/22 01:10:50;;;;;;;;;;;;;;;-148.22;100.00;58358.63;5018836;28;1898;-90
2021/07/22 01:13:16;;;;;;;;;;;;;;;-148.22;100.00;58358.63;5037271;28;854;-88
2021/07/22 01:16:11;;;;;;;;;;;;;;;-148.22;100.00;58358.63;5020598;28;1258;-89
2021/07/22 01:18:38;;;;;;;;;;;;;;;-148.22;100.00;58358.63;5048184;28;1321;-89
2021/07/22 01:21:07;;;;;;;;;;;;;;;-148.22;100.00;58358.63;5057779;28;1374;-90
2021/07/22 01:23:39;;;;;;;;;;;;;;;-148.22;100.00;58358.63;5057675;28;1254;-90
2021/07/22 01:26:20;;;;;;;;;;;;;;;-148.22;100.00;58358.63;5057835;28;1198;-89
2021/07/22 01:28:47;;;;;;;;;;;;;;;-148.22;100.00;58358.63;5057824;28;1199;-89
2021/07/22 01:31:32;;;;;;;;;;;;;;;-148.22;100.00;58358.63;5057687;28;1961;-89
2021/07/22 01:34:06;;;;;;;;;;;;;;;-148.22;100.00;58358.63;5057418;28;1346;-90
2021/07/22 01:39:34;;;;;;;;;;;;;;;-148.22;100.00;58358.63;5058654;28;641;-90
2021/07/22 01:42:13;;;;;;;;;;;;;;;-148.22;100.00;58358.63;5057491;28;1202;-88
2021/07/22 01:44:45;;;;;;;;;;;;;;;-148.22;100.00;58358.63;5057384;28;1199;-89
2021/07/22 01:47:10;;;;;;;;;;;;;;;-148.22;100.00;58358.63;5071295;28;1349;-89
2021/07/22 01:49:35;;;;;;;;;;;;;;;-148.22;100.00;58358.63;5060437;28;1252;-90
2021/07/22 01:52:16;;;;;;;;;;;;;;;-148.22;100.00;58358.63;5078487;28;1977;-90
2021/07/22 01:54:51;;;;;;;;;;;;;;;-148.22;100.00;58358.63;5060567;28;1260;-90
2021/07/22 01:57:26;;;;;;;;;;;;;;;-148.22;100.00;58358.63;5060467;28;1338;-90
2021/07/22 02:00:24;;;;;;;;;;;;;;;-148.22;100.00;58358.63;5078285;28;1161;-90
2021/07/22 02:02:51;;;;;;;;;;;;;;;-148.22;100.00;58358.63;5060518;28;1205;-90
2021/07/22 02:05:27;;;;;;;;;;;;;;;-148.22;100.00;58358.63;5078205;28;767;-90
2021/07/22 02:08:13;;;;;;;;;;;;;;;-148.22;100.00;58358.63;5078740;28;922;-90
2021/07/22 02:10:51;;;;;;;;;;;;;;;-148.22;100.00;58358.63;5060080;28;1960;-89
2021/07/22 02:13:18;;;;;;;;;;;;;;;-148.22;100.00;58358.63;5077976;28;895;-87
2021/07/22 02:15:53;;;;;;;;;;;;;;;-148.22;100.00;58358.63;5059962;28;1222;-88
2021/07/22 02:18:20;;;;;;;;;;;;;;;-148.22;100.00;58358.63;5059677;28;1309;-89
2021/07/22 02:21:06;;;;;;;;;;;;;;;-148.22;100.00;58358.63;5078011;28;806;-90
2021/07/22 02:24:05;;;;;;;;;;;;;;;-148.22;100.00;58358.63;5078421;28;1270;-90
2021/07/22 02:26:43;;;;;;;;;;;;;;;-148.22;100.00;58358.63;5080024;28;1361;-90
2021/07/22 02:29:18;;;;;;;;;;;;;;;-148.22;100.00;58358.63;5079996;28;1194;-90
2021/07/22 02:31:57;;;;;;;;;;;;;;;-148.22;100.00;58358.63;5079863;28;1894;-90
2021/07/22 02:34:33;;;;;;;;;;;;;;;-148.22;100.00;58358.63;5079807;28;1363;-91
2021/07/22 02:37:06;;;;;;;;;;;;;;;-148.22;100.00;58358.63;5079783;28;1148;-90
2021/07/22 02:40:23;;;;;;;;;;;;;;;-148.22;100.00;58358.63;5097805;28;806;-90
2021/07/22 02:42:48;;;;;;;;;;;;;;;-148.22;100.00;58358.63;5077639;28;1219;-90
2021/07/22 02:45:13;;;;;;;;;;;;;;;-148.22;100.00;58358.63;5079555;28;1194;-89
2021/07/22 02:47:38;;;;;;;;;;;;;;;-148.22;100.00;58358.63;5079202;28;1201;-89
2021/07/22 02:50:19;;;;;;;;;;;;;;;-148.22;100.00;58358.63;5079403;28;1036;-89
2021/07/22 02:52:55;;;;;;;;;;;;;;;-148.22;100.00;58358.63;5059699;28;1225;-89
2021/07/22 02:55:20;;;;;;;;;;;;;;;-148.22;100.00;58358.63;5077284;28;822;-90
2021/07/22 02:58:18;;;;;;;;;;;;;;;-148.22;100.00;58358.63;5059346;28;1349;-90
2021/07/22 03:01:02;;;;;;;;;;;;;;;-148.22;100.00;58358.63;4995871;28;1371;-90
2021/07/22 03:04:06;;;;;;;;;;;;;;;-148.22;100.00;58358.63;4979442;28;1204;-89
2021/07/22 03:06:41;;;;;;;;;;;;;;;-148.22;100.00;58358.63;4956909;29;990;-89
2021/07/22 03:12:34;;;;;;;;;;;;;;;-148.22;100.00;58358.63;4956904;29;1890;-90
2021/07/22 03:18:03;;;;;;;;;;;;;;;-148.22;100.00;58358.63;4975480;28;956;-90
2021/07/22 03:20:46;;;;;;;;;;;;;;;-148.22;100.00;58358.63;4976190;28;1025;-90
2021/07/22 03:26:50;;;;;;;;;;;;;;;-148.22;100.00;58358.63;4976010;28;706;-91
2021/07/22 03:29:24;;;;;;;;;;;;;;;-148.22;100.00;58358.63;4975851;28;1291;-90
2021/07/22 03:32:26;;;;;;;;;;;;;;;-148.22;100.00;58358.63;4975584;28;2381;-90
2021/07/22 03:34:52;;;;;;;;;;;;;;;-148.22;100.00;58358.63;4932572;29;1345;-90
2021/07/22 03:37:18;;;;;;;;;;;;;;;-148.22;100.00;58358.63;4988701;28;1159;-90
2021/07/22 03:39:55;;;;;;;;;;;;;;;-148.22;100.00;58358.63;4978731;28;1184;-89
2021/07/22 03:42:21;;;;;;;;;;;;;;;-148.22;100.00;58358.63;4979917;28;1337;-88
2021/07/22 03:45:23;;;;;;;;;;;;;;;-148.22;100.00;58358.63;4998421;28;1301;-89
2021/07/22 03:47:48;;;;;;;;;;;;;;;-148.22;100.00;58358.63;4998107;28;1311;-89
2021/07/22 03:56:31;;;;;;;;;;;;;;;-148.22;100.00;58358.63;5014503;28;943;-89
2021/07/22 03:58:57;;;;;;;;;;;;;;;-148.22;100.00;58358.63;5014475;28;1192;-89
2021/07/22 04:01:31;;;;;;;;;;;;;;;-148.22;100.00;58358.63;5014279;28;1240;-90
2021/07/22 04:04:31;;;;;;;;;;;;;;;-148.22;100.00;58358.63;5014434;28;1227;-89
2021/07/22 04:07:13;;;;;;;;;;;;;;;-148.22;100.00;58358.63;4975143;28;1170;-89
2021/07/22 04:09:47;;;;;;;;;;;;;;;-148.22;100.00;58358.63;5024045;28;1256;-90
2021/07/22 04:15:15;;;;;;;;;;;;;;;-148.22;100.00;58358.63;5033985;28;681;-90
2021/07/22 04:17:52;;;;;;;;;;;;;;;-148.22;100.00;58358.63;5033350;28;1033;-88
2021/07/22 04:20:49;;;;;;;;;;;;;;;-148.22;100.00;58358.63;5016670;28;1277;-87
2021/07/22 04:26:32;;;;;;;;;;;;;;;-148.22;100.00;58358.63;5033981;28;633;-88
2021/07/22 04:28:57;;;;;;;;;;;;;;;-148.22;100.00;58358.63;5033953;28;1263;-87
2021/07/22 04:35:07;;;;;;;;;;;;;;;-148.22;100.00;58358.63;5033959;28;629;-86
2021/07/22 04:37:42;;;;;;;;;;;;;;;-148.22;100.00;58358.63;5033704;28;1184;-86
2021/07/22 04:40:26;;;;;;;;;;;;;;;-148.22;100.00;58358.63;5033805;28;1192;-86
2021/07/22 04:42:53;;;;;;;;;;;;;;;-148.22;100.00;58358.63;5060949;28;1284;-88
2021/07/22 04:45:33;;;;;;;;;;;;;;;-148.22;100.00;58358.63;5095033;28;1000;-89
2021/07/22 04:48:01;;;;;;;;;;;;;;;-148.22;100.00;58358.63;5081704;28;1184;-90
2021/07/22 04:50:48;;;;;;;;;;;;;;;-148.22;100.00;58358.63;5091544;28;1967;-90
2021/07/22 04:53:43;;;;;;;;;;;;;;;-148.22;100.00;58358.63;5083888;28;880;-89
2021/07/22 04:56:10;;;;;;;;;;;;;;;-148.22;100.00;58358.63;5021030;28;1314;-89
2021/07/22 04:59:15;;;;;;;;;;;;;;;-148.22;100.00;58358.63;5020785;28;1263;-89
2021/07/22 05:01:53;;;;;;;;;;;;;;;-148.22;100.00;58358.63;5020792;28;1335;-90
2021/07/22 05:04:20;;;;;;;;;;;;;;;-148.22;100.00;58358.63;5021248;28;1192;-90
2021/07/22 05:07:17;;;;;;;;;;;;;;;-148.22;100.00;58358.63;5020894;28;1172;-90
2021/07/22 05:13:04;;;;;;;;;;;;;;;-148.22;100.00;58358.63;5037230;28;1086;-90
2021/07/22 05:15:58;;;;;;;;;;;;;;;-148.22;100.00;58358.63;5020633;28;1236;-90
2021/07/22 05:18:57;;;;;;;;;;;;;;;-148.22;100.00;58358.63;5020658;28;1161;-90
2021/07/22 05:21:41;;;;;;;;;;;;;;;-148.22;100.00;58358.63;5017208;28;1037;-89
2021/07/22 05:24:17;;;;;;;;;;;;;;;-148.22;100.00;58358.63;5017219;28;997;-90
2021/07/22 05:27:03;;;;;;;;;;;;;;;-148.22;100.00;58358.63;5000807;28;1312;-88
2021/07/22 05:32:52;;;;;;;;;;;;;;;-148.22;100.00;58358.63;5036187;28;1882;-89
2021/07/22 05:35:30;;;;;;;;;;;;;;;-148.22;100.00;58358.63;5036268;28;1321;-88
2021/07/22 05:44:46;;;;;;;;;;;;;;;-148.22;100.00;58358.63;4996605;28;1067;-90
2021/07/22 05:47:11;;;;;;;;;;;;;;;-148.22;100.00;58358.63;4997032;28;1322;-89
2021/07/22 05:50:08;;;;;;;;;;;;;;;-148.22;100.00;58358.63;4980677;28;1318;-88
2021/07/22 05:52:33;;;;;;;;;;;;;;;-148.22;100.00;58358.63;4997135;28;1895;-88
2021/07/22 05:55:17;;;;;;;;;;;;;;;-148.22;100.00;58358.63;4980126;28;1170;-89
2021/07/22 05:57:43;;;;;;;;;;;;;;;-148.22;100.00;58358.63;5026908;28;1306;-88
2021/07/22 06:00:38;;;;;;;;;;;;;;;-148.22;100.00;58358.63;5019194;28;1372;-89
2021/07/22 06:03:32;;;;;;;;;;;;;;;-148.22;100.00;58358.63;4977003;28;1144;-90
2021/07/22 06:06:17;;;;;;;;;;;;;;;-148.22;100.00;58358.63;4976170;28;1073;-89
2021/07/22 06:08:54;;;;;;;;;;;;;;;-148.22;100.00;58358.63;4977378;28;1279;-90
2021/07/22 06:11:31;;;;;;;;;;;;;;;-148.22;100.00;58358.63;4977306;28;1890;-90
2021/07/22 06:13:58;;;;;;;;;;;;;;;-148.22;100.00;58358.63;4960453;28;1356;-90
2021/07/22 06:16:27;;;;;;;;;;;;;;;-148.22;100.00;58358.63;4961094;28;1358;-89
2021/07/22 06:18:53;;;;;;;;;;;;;;;-148.22;100.00;58358.63;4976820;28;1215;-88
2021/07/22 06:21:29;;;;;;;;;;;;;;;-148.22;100.00;58358.63;4974021;28;1150;-88
2021/07/22 06:30:19;;;;;;;;;;;;;;;-148.22;100.00;58358.63;4996451;28;598;-88
2021/07/22 06:33:19;;;;;;;;;;;;;;;-148.22;100.00;58358.63;4991633;28;1388;-87
2021/07/22 06:35:46;;;;;;;;;;;;;;;-148.22;100.00;58358.63;4985884;28;1424;-89
2021/07/22 06:41:48;;;;;;;;;;;;;;;-148.22;100.00;58358.63;5015973;28;961;-91
2021/07/22 06:47:16;;;;;;;;;;;;;;;-148.22;100.00;58358.63;5042002;28;1248;-96
2021/07/22 06:49:41;;;;;;;;;;;;;;;-148.22;100.00;58358.63;5042356;28;1199;-96
2021/07/22 06:55:09;;;;;;;;;;;;;;;-148.22;100.00;58358.63;5040494;28;1656;-86
2021/07/22 06:57:55;;;;;;;;;;;;;;;-148.22;100.00;58358.63;5034712;28;1450;-86
2021/07/22 07:00:35;;;;;;;;;;;;;;;-148.22;100.00;58358.63;5048548;28;1180;-87
2021/07/22 07:03:13;;;;;;;;;;;;;;;-148.22;100.00;58358.63;5048852;28;1698;-88
2021/07/22 07:05:40;;;;;;;;;;;;;;;-148.22;100.00;58358.63;5028764;28;1828;-88
2021/07/22 07:08:26;;;;;;;;;;;;;;;-148.22;100.00;58358.63;5022692;28;1353;-88
2021/07/22 07:11:17;;;;;;;;;;;;;;;-148.22;100.00;58358.63;5038156;28;1890;-90
2021/07/22 07:14:07;;;;;;;;;;;;;;;-148.22;100.00;58358.63;5034813;28;1287;-92
2021/07/22 07:16:51;;;;;;;;;;;;;;;-148.22;100.00;58358.63;5024383;28;1340;-89
2021/07/22 07:19:18;;;;;;;;;;;;;;;-148.22;100.00;58358.63;5071931;28;1223;-89
2021/07/22 07:22:02;;;;;;;;;;;;;;;-148.22;100.00;58358.63;5075504;28;952;-88
2021/07/22 07:24:27;;;;;;;;;;;;;;;-148.22;100.00;58358.63;5076683;28;988;-89
2021/07/22 07:27:08;;;;;;;;;;;;;;;-148.22;100.00;58358.63;5075435;28;1287;-89
2021/07/22 07:32:57;;;;;;;;;;;;;;;-148.22;100.00;58358.63;5076419;28;1989;-88
2021/07/22 07:35:58;;;;;;;;;;;;;;;-148.22;100.00;58358.63;5076083;28;1262;-88
2021/07/22 07:38:55;;;;;;;;;;;;;;;-148.22;100.00;58358.63;5055382;28;1245;-88
2021/07/22 07:41:31;;;;;;;;;;;;;;;-148.22;100.00;58358.63;5055401;28;1259;-89
2021/07/22 07:44:08;;;;;;;;;;;;;;;-148.22;100.00;58358.63;5055192;28;1246;-88
2021/07/22 07:46:33;;;;;;;;;;;;;;;-148.22;100.00;58358.63;5057607;28;1233;-89
2021/07/22 07:48:58;;;;;;;;;;;;;;;-148.22;100.00;58358.63;5077580;28;1306;-89
2021/07/22 07:51:23;;;;;;;;;;;;;;;-148.22;100.00;58358.63;5078166;28;1985;-89
2021/07/22 07:54:13;;;;;;;;;;;;;;;-148.22;100.00;58358.63;5059390;28;1329;-89
2021/07/22 07:56:58;;;;;;;;;;;;;;;-148.22;100.00;58358.63;5058340;28;1223;-92
2021/07/22 07:59:32;;;;;;;;;;;;;;;-148.22;100.00;58358.63;5069584;28;1491;-88
2021/07/22 08:02:07;;;;;;;;;;;;;;;-148.22;100.00;58358.63;5077729;28;1341;-89
2021/07/22 08:04:38;;;;;;;;;;;;;;;-148.22;100.00;58358.63;5074375;28;1443;-91
2021/07/22 08:10:06;;;;;;;;;;;;;;;-148.22;100.00;58358.63;5076029;28;589;-93
2021/07/22 08:16:06;;;;;;;;;;;;;;;-148.22;100.00;58358.63;5096600;28;589;-92
2021/07/22 08:18:50;;;;;;;;;;;;;;;-148.22;100.00;58358.63;5067782;28;1381;-92
2021/07/22 08:21:25;;;;;;;;;;;;;;;-148.22;100.00;58358.63;5057627;28;1301;-94
2021/07/22 08:23:51;;;;;;;;;;;;;;;-148.22;100.00;58358.63;5074766;28;1258;-92
2021/07/22 08:26:44;;;;;;;;;;;;;;;-148.22;100.00;58358.63;5077993;28;1368;-92
2021/07/22 08:29:37;;;;;;;;;;;;;;;-148.22;100.00;58358.63;5096071;28;877;-93
2021/07/22 08:38:20;;;;;;;;;;;;;;;-148.22;100.00;58358.63;5075671;28;660;-91
2021/07/22 08:40:53;;;;;;;;;;;;;;;-148.22;100.00;58358.63;5058099;28;1194;-91
2021/07/22 08:43:40;;;;;;;;;;;;;;;-148.22;100.00;58358.63;5058115;28;1224;-92
2021/07/22 08:46:27;;;;;;;;;;;;;;;-148.22;100.00;58358.63;5076078;28;1061;-94
2021/07/22 08:48:53;;;;;;;;;;;;;;;-148.22;100.00;58358.63;5034470;28;1196;-90
2021/07/22 08:51:20;;;;;;;;;;;;;;;-148.22;100.00;58358.63;5051095;28;1977;-92
2021/07/22 08:54:05;;;;;;;;;;;;;;;-148.22;100.00;58358.63;5056044;28;1442;-92
2021/07/22 08:56:32;;;;;;;;;;;;;;;-148.22;100.00;58358.63;5070910;28;1382;-91
2021/07/22 08:59:18;;;;;;;;;;;;;;;-148.22;100.00;58358.63;5070400;28;1372;-90
2021/07/22 09:01:58;;;;;;;;;;;;;;;-148.22;100.00;58358.63;5070939;28;1235;-90
2021/07/22 09:04:52;;;;;;;;;;;;;;;-148.22;100.00;58358.63;5054026;28;1374;-91
2021/07/22 09:07:58;;;;;;;;;;;;;;;-148.22;100.00;58358.63;5070893;28;1258;-92
2021/07/22 09:10:24;;;;;;;;;;;;;;;-148.22;100.00;58358.63;5070616;28;1961;-91
2021/07/22 09:13:23;;;;;;;;;;;;;;;-148.22;100.00;58358.63;5054030;28;1529;-91
2021/07/22 09:18:52;;;;;;;;;;;;;;;-148.22;100.00;58358.63;5055257;28;622;-92
2021/07/22 09:21:28;;;;;;;;;;;;;;;-148.22;100.00;58358.63;5063495;28;1447;-91
2021/07/22 09:24:19;;;;;;;;;;;;;;;-148.22;100.00;58358.63;5066446;28;1390;-91
2021/07/22 09:27:23;;;;;;;;;;;;;;;-148.22;100.00;58358.63;5050797;28;1210;-93
2021/07/22 09:30:05;;;;;;;;;;;;;;;-148.22;100.00;58358.63;5051971;28;1568;-93
2021/07/22 09:32:49;;;;;;;;;;;;;;;-148.22;100.00;58358.63;5037894;28;1948;-93
2021/07/22 09:38:17;;;;;;;;;;;;;;;-148.22;100.00;58358.63;5057647;28;921;-92
2021/07/22 09:43:56;;;;;;;;;;;;;;;-148.22;100.00;58358.63;5050926;28;1513;-89
2021/07/22 09:46:38;;;;;;;;;;;;;;;-148.22;100.00;58358.63;5053931;28;1236;-91
2021/07/22 09:49:07;;;;;;;;;;;;;;;-148.22;100.00;58358.63;5037595;28;1195;-91
2021/07/22 09:52:10;;;;;;;;;;;;;;;-148.22;100.00;58358.63;5046613;28;1985;-93
2021/07/22 09:54:54;;;;;;;;;;;;;;;-148.22;100.00;58358.63;5057025;28;1232;-88
2021/07/22 09:57:31;;;;;;;;;;;;;;;-148.22;100.00;58358.63;5040065;28;1270;-90
2021/07/22 10:03:08;;;;;;;;;;;;;;;-148.22;100.00;58358.63;5047632;28;1489;-91
2021/07/22 10:08:45;;;;;;;;;;;;;;;-148.22;100.00;58358.63;5056033;28;1343;-93
2021/07/22 10:11:30;;;;;;;;;;;;;;;-148.22;100.00;58358.63;5037140;28;1898;-91
2021/07/22 10:17:30;;;;;;;;;;;;;;;-148.22;100.00;58358.63;5038804;28;696;-93
2021/07/22 10:19:57;;;;;;;;;;;;;;;-148.22;100.00;58358.63;5019521;28;1139;-93
2021/07/22 10:22:41;;;;;;;;;;;;;;;-148.22;100.00;58358.63;5019149;28;1228;-94
2021/07/22 10:25:16;;;;;;;;;;;;;;;-148.22;100.00;58358.63;5019488;28;1204;-93
2021/07/22 10:28:06;;;;;;;;;;;;;;;-148.22;100.00;58358.63;5018887;28;1308;-93
2021/07/22 10:30:57;;;;;;;;;;;;;;;-148.22;100.00;58358.63;5018589;28;1878;-93
2021/07/22 10:39:57;;;;;;;;;;;;;;;-148.22;100.00;58358.63;5035784;28;920;-93
2021/07/22 10:42:51;;;;;;;;;;;;;;;-148.22;100.00;58358.63;5019221;28;1233;-94
2021/07/22 10:48:28;;;;;;;;;;;;;;;-148.22;100.00;58358.63;5015740;28;1334;-94
2021/07/22 10:53:55;;;;;;;;;;;;;;;-148.22;100.00;58358.63;5018254;28;925;-93
2021/07/22 10:59:43;;;;;;;;;;;;;;;-148.22;100.00;58358.63;5035419;28;928;-93
2021/07/22 11:05:31;;;;;;;;;;;;;;;-148.22;100.00;58358.63;5035229;28;1144;-93
2021/07/22 11:08:22;;;;;;;;;;;;;;;-148.22;100.00;58358.63;5018493;28;1245;-94
2021/07/22 11:17:44;;;;;;;;;;;;;;;-148.22;100.00;58358.63;5005638;28;1156;-93
2021/07/22 11:23:43;;;;;;;;;;;;;;;-148.22;100.00;58358.63;4996056;28;1065;-93
2021/07/22 11:26:24;;;;;;;;;;;;;;;-148.22;100.00;58358.63;4982245;28;1185;-93
2021/07/22 11:31:55;;;;;;;;;;;;;;;-148.22;100.00;58358.63;4996079;28;2033;-92
2021/07/22 11:34:54;;;;;;;;;;;;;;;-148.22;100.00;58358.63;4978994;28;1379;-88
2021/07/22 11:37:38;;;;;;;;;;;;;;;-148.22;100.00;58358.63;4971026;28;1242;-88
2021/07/22 11:40:36;;;;;;;;;;;;;;;-148.22;100.00;58358.63;4976268;28;1145;-87
2021/07/22 11:43:37;;;;;;;;;;;;;;;-148.22;100.00;58358.63;4962330;28;1320;-89
2021/07/22 11:46:23;;;;;;;;;;;;;;;-148.22;100.00;58358.63;4978852;28;1183;-89
2021/07/22 11:48:48;;;;;;;;;;;;;;;-148.22;100.00;58358.63;5015561;28;1343;-89
2021/07/22 11:51:28;;;;;;;;;;;;;;;-148.22;100.00;58358.63;5014356;28;1902;-88
2021/07/22 11:53:58;;;;;;;;;;;;;;;-148.22;100.00;58358.63;5014801;28;1276;-87
2021/07/22 11:56:49;;;;;;;;;;;;;;;-148.22;100.00;58358.63;5060025;28;1176;-87
2021/07/22 11:59:51;;;;;;;;;;;;;;;-148.22;100.00;58358.63;5075021;28;1228;-88
2021/07/22 12:02:44;;;;;;;;;;;;;;;-148.22;100.00;58358.63;5074834;28;1354;-87
2021/07/22 12:05:21;;;;;;;;;;;;;;;-148.22;100.00;58358.63;5074542;28;1335;-87
2021/07/22 12:08:16;;;;;;;;;;;;;;;-148.22;100.00;58358.63;5055526;28;1510;-87
2021/07/22 12:10:56;;;;;;;;;;;;;;;-148.22;100.00;58358.63;5054722;28;1893;-87
2021/07/22 12:16:34;;;;;;;;;;;;;;;-148.22;100.00;58358.63;5056788;28;1221;-87
2021/07/22 12:19:01;;;;;;;;;;;;;;;-148.22;100.00;58358.63;5076048;28;913;-88
2021/07/22 12:21:29;;;;;;;;;;;;;;;-148.22;100.00;58358.63;5075593;28;1304;-87
2021/07/22 12:24:16;;;;;;;;;;;;;;;-148.22;100.00;58358.63;5074882;28;1332;-84
2021/07/22 12:26:41;;;;;;;;;;;;;;;-148.22;100.00;58358.63;5073139;28;980;-89
2021/07/22 12:29:17;;;;;;;;;;;;;;;-148.22;100.00;58358.63;5086882;28;1229;-86
2021/07/22 12:31:45;;;;;;;;;;;;;;;-148.22;100.00;58358.63;5060274;28;1898;-87
2021/07/22 12:34:35;;;;;;;;;;;;;;;-148.22;100.00;58358.63;5074699;28;1167;-96
2021/07/22 12:40:09;;;;;;;;;;;;;;;-148.22;100.00;58358.63;5076438;28;631;-92
2021/07/22 12:42:55;;;;;;;;;;;;;;;-148.22;100.00;58358.63;5063476;28;1311;-92
2021/07/22 12:45:21;;;;;;;;;;;;;;;-148.22;100.00;58358.63;5058449;28;1448;-94
2021/07/22 12:47:46;;;;;;;;;;;;;;;-148.22;100.00;58358.63;5074324;28;1248;-86
2021/07/22 12:50:27;;;;;;;;;;;;;;;-148.22;100.00;58358.63;5075149;28;992;-92
2021/07/22 12:53:20;;;;;;;;;;;;;;;-148.22;100.00;58358.63;5072875;28;1910;-94
2021/07/22 12:56:14;;;;;;;;;;;;;;;-148.22;100.00;58358.63;5070640;28;1254;-89
2021/07/22 12:59:13;;;;;;;;;;;;;;;-148.22;100.00;58358.63;5037196;28;1395;-93
2021/07/22 13:01:40;;;;;;;;;;;;;;;-148.22;100.00;58358.63;5035795;28;1181;-91
2021/07/22 13:04:25;;;;;;;;;;;;;;;-148.22;100.00;58358.63;5038777;28;1442;-93
2021/07/22 13:10:13;;;;;;;;;;;;;;;-148.22;100.00;58358.63;5056959;28;1159;-88
2021/07/22 13:12:54;;;;;;;;;;;;;;;-148.22;100.00;58358.63;5051502;28;1887;-89
2021/07/22 13:15:21;;;;;;;;;;;;;;;-148.22;100.00;58358.63;5060554;28;1271;-90
2021/07/22 13:18:00;;;;;;;;;;;;;;;-148.22;100.00;58358.63;5060297;28;1313;-88
2021/07/22 13:20:34;;;;;;;;;;;;;;;-148.22;100.00;58358.63;5054137;28;1372;-87
2021/07/22 13:23:19;;;;;;;;;;;;;;;-148.22;100.00;58358.63;5040527;28;1189;-86
2021/07/22 13:25:47;;;;;;;;;;;;;;;-148.22;100.00;58358.63;5058224;28;1234;-83
2021/07/22 13:28:13;;;;;;;;;;;;;;;-148.22;100.00;58358.63;5065185;28;1749;-83
2021/07/22 13:30:48;;;;;;;;;;;;;;;-148.22;100.00;58358.63;5059829;28;1890;-86
2021/07/22 13:33:35;;;;;;;;;;;;;;;-148.22;100.00;58358.63;5074744;28;942;-92
2021/07/22 13:36:17;;;;;;;;;;;;;;;-148.22;100.00;58358.63;5060422;28;1400;-88
2021/07/22 13:38:44;;;;;;;;;;;;;;;-148.22;100.00;58358.63;5063556;28;1394;-83
2021/07/22 13:41:10;;;;;;;;;;;;;;;-148.22;100.00;58358.63;5062053;28;1284;-83
2021/07/22 13:43:51;;;;;;;;;;;;;;;-148.22;100.00;58358.63;5057338;28;1336;-86
2021/07/22 13:46:17;;;;;;;;;;;;;;;-148.22;100.00;58358.63;5058194;28;792;-83
2021/07/22 13:48:42;;;;;;;;;;;;;;;-148.22;100.00;58358.63;5063526;28;1429;-85
2021/07/22 13:51:07;;;;;;;;;;;;;;;-148.22;100.00;58358.63;5071566;28;1902;-81
2021/07/22 13:53:48;;;;;;;;;;;;;;;-148.22;100.00;58358.63;5095898;28;1705;-82
2021/07/22 13:59:27;;;;;;;;;;;;;;;-148.22;100.00;58358.63;5068838;28;1139;-87
2021/07/22 14:01:54;;;;;;;;;;;;;;;-148.22;100.00;58358.63;5070728;28;1552;-86
2021/07/22 14:04:21;;;;;;;;;;;;;;;-148.22;100.00;58358.63;5063321;28;1303;-89
2021/07/22 14:06:55;;;;;;;;;;;;;;;-148.22;100.00;58358.63;5059646;28;895;-87
2021/07/22 14:12:23;;;;;;;;;;;;;;;-148.22;100.00;58358.63;5058423;28;1898;-86
2021/07/22 14:15:00;;;;;;;;;;;;;;;-148.22;100.00;58358.63;5056517;28;1231;-86
2021/07/22 14:17:33;;;;;;;;;;;;;;;-148.22;100.00;58358.63;5058845;28;1321;-85
2021/07/22 14:19:59;;;;;;;;;;;;;;;-148.22;100.00;58358.63;5069753;28;1286;-85
2021/07/22 14:25:27;;;;;;;;;;;;;;;-148.22;100.00;58358.63;5077593;28;1305;-86
2021/07/22 14:28:22;;;;;;;;;;;;;;;-148.22;100.00;58358.63;5077179;28;1442;-86
2021/07/22 14:30:59;;;;;;;;;;;;;;;-148.22;100.00;58358.63;5073637;28;1915;-85
2021/07/22 14:33:25;;;;;;;;;;;;;;;-148.22;100.00;58358.63;5074240;28;1456;-84
2021/07/22 14:36:01;;;;;;;;;;;;;;;-148.22;100.00;58358.63;5077600;28;776;-82
2021/07/22 14:38:37;;;;;;;;;;;;;;;-148.22;100.00;58358.63;5065918;28;1526;-82
2021/07/22 14:41:11;;;;;;;;;;;;;;;-148.22;100.00;58358.63;5075860;28;1443;-81
2021/07/22 14:43:48;;;;;;;;;;;;;;;-148.22;100.00;58358.63;5063679;28;1444;-81
2021/07/22 14:46:20;;;;;;;;;;;;;;;-148.22;100.00;58358.63;5056007;28;1334;-82
2021/07/22 14:48:45;;;;;;;;;;;;;;;-148.22;100.00;58358.63;5055626;28;1453;-81
2021/07/22 14:51:10;;;;;;;;;;;;;;;-148.22;100.00;58358.63;5055899;28;1918;-82
2021/07/22 14:53:36;;;;;;;;;;;;;;;-148.22;100.00;58358.63;5053792;28;1593;-82
2021/07/22 14:56:21;;;;;;;;;;;;;;;-148.22;100.00;58358.63;5057208;28;807;-82
2021/07/22 14:59:12;;;;;;;;;;;;;;;-148.22;100.00;58358.63;5048309;28;1236;-82
2021/07/22 15:01:58;;;;;;;;;;;;;;;-148.22;100.00;58358.63;5036801;28;1340;-81
2021/07/22 15:04:30;;;;;;;;;;;;;;;-148.22;100.00;58358.63;5035546;28;1294;-82
2021/07/22 15:07:28;;;;;;;;;;;;;;;-148.22;100.00;58358.63;5041566;28;898;-83
2021/07/22 15:10:23;;;;;;;;;;;;;;;-148.22;100.00;58358.63;4979137;28;1283;-83
2021/07/22 15:12:58;;;;;;;;;;;;;;;-148.22;100.00;58358.63;4937411;29;1952;-84
2021/07/22 15:15:23;;;;;;;;;;;;;;;-148.22;100.00;58358.63;4921678;29;1194;-83
2021/07/22 15:17:49;;;;;;;;;;;;;;;-148.22;100.00;58358.63;4921913;29;1256;-84
2021/07/22 15:20:27;;;;;;;;;;;;;;;-148.22;100.00;58358.63;4921640;29;1325;-83
2021/07/22 15:23:10;;;;;;;;;;;;;;;-148.22;100.00;58358.63;4921514;29;1433;-83
2021/07/22 15:25:57;;;;;;;;;;;;;;;-148.22;100.00;58358.63;4921450;29;1376;-84
2021/07/22 15:28:41;;;;;;;;;;;;;;;-148.22;100.00;58358.63;4921519;29;1190;-83
2021/07/22 15:31:07;;;;;;;;;;;;;;;-148.22;100.00;58358.63;4921240;29;1893;-83
2021/07/22 15:33:32;;;;;;;;;;;;;;;-148.22;100.00;58358.63;4937346;29;1026;-83
2021/07/22 15:36:07;;;;;;;;;;;;;;;-148.22;100.00;58358.63;4937285;29;937;-83
2021/07/22 15:38:33;;;;;;;;;;;;;;;-148.22;100.00;58358.63;4921315;29;1346;-83
2021/07/22 15:40:59;;;;;;;;;;;;;;;-148.22;100.00;58358.63;4921073;29;1304;-82
2021/07/22 15:43:26;;;;;;;;;;;;;;;-148.22;100.00;58358.63;4937353;29;924;-82
2021/07/22 15:46:24;;;;;;;;;;;;;;;-148.22;100.00;58358.63;4962422;28;935;-82
2021/07/22 15:48:49;;;;;;;;;;;;;;;-148.22;100.00;58358.63;5020536;28;1338;-83